createdAt,value
2022-12-15T00:00:39.328Z,-3.63
2022-12-15T00:03:26.606Z,-3.44
2022-12-15T00:06:14.078Z,-3.37
2022-12-15T00:09:00.825Z,-3.33
2022-12-15T00:11:47.247Z,-3.30
2022-12-15T00:14:34.062Z,-3.23
2022-12-15T00:17:20.567Z,-3.28
2022-12-15T00:20:07.348Z,-3.16
2022-12-15T00:22:54.192Z,-3.41
2022-12-15T00:25:41.357Z,-3.18
2022-12-15T00:28:27.803Z,-3.40
2022-12-15T00:31:16.544Z,-3.20
2022-12-15T00:34:02.998Z,-3.17
2022-12-15T00:36:49.963Z,-3.23
2022-12-15T00:39:18.022Z,-3.14
2022-12-15T00:41:45.981Z,-3.16
2022-12-15T00:44:18.907Z,-3.21
2022-12-15T00:46:54.788Z,-3.36
2022-12-15T00:49:45.081Z,-3.19
2022-12-15T00:52:34.168Z,-3.35
2022-12-15T00:55:21.768Z,-3.08
2022-12-15T00:58:08.885Z,-3.05
2022-12-15T01:00:55.324Z,-3.11
2022-12-15T01:03:43.438Z,-3.11
2022-12-15T01:06:34.678Z,-3.01
2022-12-15T01:09:23.574Z,-3.07
2022-12-15T01:12:10.687Z,-2.98
2022-12-15T01:14:57.849Z,-2.96
2022-12-15T01:17:44.624Z,-3.14
2022-12-15T01:20:18.716Z,-2.96
2022-12-15T01:22:49.988Z,-3.40
2022-12-15T01:25:20.464Z,-3.03
2022-12-15T01:27:49.784Z,-3.09
2022-12-15T01:30:24.993Z,-3.10
2022-12-15T01:32:53.519Z,-3.01
2022-12-15T01:35:22.548Z,-3.27
2022-12-15T01:37:51.000Z,-3.21
2022-12-15T01:40:39.509Z,-3.17
2022-12-15T01:43:22.577Z,-3.12
2022-12-15T01:45:57.919Z,-2.93
2022-12-15T01:48:49.778Z,-2.90
2022-12-15T01:51:34.182Z,-2.91
2022-12-15T01:54:10.656Z,-2.87
2022-12-15T01:56:49.742Z,-2.90
2022-12-15T01:59:36.049Z,-2.85
2022-12-15T02:02:04.111Z,-2.88
2022-12-15T02:04:33.793Z,-2.81
2022-12-15T02:07:01.770Z,-2.94
2022-12-15T02:09:30.619Z,-2.97
2022-12-15T02:12:10.399Z,-2.80
2022-12-15T02:15:05.195Z,-2.71
2022-12-15T02:17:55.573Z,-2.71
2022-12-15T02:21:07.476Z,-2.71
2022-12-15T02:24:19.890Z,-2.89
2022-12-15T02:27:34.604Z,-2.58
2022-12-15T02:30:47.379Z,-2.69
2022-12-15T02:33:30.156Z,-2.82
2022-12-15T02:36:22.120Z,-2.56
2022-12-15T02:38:50.039Z,-2.55
2022-12-15T02:41:43.496Z,-2.43
2022-12-15T02:44:47.552Z,-2.66
2022-12-15T02:47:24.179Z,-2.67
2022-12-15T02:50:40.841Z,-2.34
2022-12-15T02:53:48.817Z,-2.33
2022-12-15T02:56:48.842Z,-2.43
2022-12-15T02:59:42.221Z,-2.18
2022-12-15T03:02:12.164Z,-2.31
2022-12-15T03:04:42.761Z,-2.15
2022-12-15T03:07:11.110Z,-2.00
2022-12-15T03:09:39.215Z,-2.00
2022-12-15T03:12:07.674Z,-1.97
2022-12-15T03:14:35.589Z,-2.18
2022-12-15T03:17:04.327Z,-2.12
2022-12-15T03:19:32.273Z,-2.16
2022-12-15T03:22:00.394Z,-1.99
2022-12-15T03:24:28.277Z,-2.07
2022-12-15T03:26:56.418Z,-1.96
2022-12-15T03:29:24.863Z,-2.19
2022-12-15T03:31:52.879Z,-2.01
2022-12-15T03:34:21.364Z,-1.93
2022-12-15T03:36:49.899Z,-1.99
2022-12-15T03:39:17.793Z,-2.16
2022-12-15T03:41:45.904Z,-2.72
2022-12-15T03:44:13.807Z,-2.23
2022-12-15T03:46:41.793Z,-1.94
2022-12-15T03:49:09.807Z,-2.03
2022-12-15T03:51:37.653Z,-1.97
2022-12-15T03:54:05.728Z,-1.89
2022-12-15T03:56:33.820Z,-1.93
2022-12-15T03:59:01.686Z,-2.21
2022-12-15T04:01:35.562Z,-1.95
2022-12-15T04:04:05.066Z,-1.87
2022-12-15T04:06:33.111Z,-1.85
2022-12-15T04:09:00.930Z,-1.81
2022-12-15T04:11:29.206Z,-1.81
2022-12-15T04:13:57.211Z,-1.76
2022-12-15T04:16:25.291Z,-1.84
2022-12-15T04:19:14.001Z,-1.79
2022-12-15T04:21:41.997Z,-1.88
2022-12-15T04:24:28.675Z,-1.79
2022-12-15T04:27:14.969Z,-1.88
2022-12-15T04:30:01.962Z,-2.10
2022-12-15T04:32:49.809Z,-1.95
2022-12-15T04:35:37.368Z,-1.84
2022-12-15T04:38:24.147Z,-1.88
2022-12-15T04:41:10.800Z,-1.89
2022-12-15T04:43:57.850Z,-1.84
2022-12-15T04:46:44.698Z,-1.99
2022-12-15T04:49:31.812Z,-1.91
2022-12-15T04:52:18.518Z,-1.93
2022-12-15T04:55:05.456Z,-1.95
2022-12-15T04:57:52.173Z,-1.81
2022-12-15T05:00:38.953Z,-1.84
2022-12-15T05:03:27.265Z,-1.90
2022-12-15T05:06:16.922Z,-2.06
2022-12-15T05:09:03.683Z,-2.03
2022-12-15T05:11:50.494Z,-2.05
2022-12-15T05:14:37.259Z,-1.80
2022-12-15T05:17:23.919Z,-1.78
2022-12-15T05:20:10.215Z,-1.75
2022-12-15T05:22:56.718Z,-2.04
2022-12-15T05:25:43.141Z,-1.78
2022-12-15T05:28:30.143Z,-1.96
2022-12-15T05:31:16.957Z,-1.78
2022-12-15T05:33:45.027Z,-1.77
2022-12-15T05:36:12.989Z,-1.85
2022-12-15T05:38:41.064Z,-1.81
2022-12-15T05:41:09.488Z,-1.88
2022-12-15T05:43:37.347Z,-1.97
2022-12-15T05:46:05.942Z,-1.76
2022-12-15T05:48:33.739Z,-1.76
2022-12-15T05:51:20.233Z,-1.94
2022-12-15T05:53:48.222Z,-1.75
2022-12-15T05:56:16.217Z,-1.76
2022-12-15T05:58:45.671Z,-1.77
2022-12-15T06:01:16.756Z,-1.98
2022-12-15T06:03:45.798Z,-1.99
2022-12-15T06:06:14.106Z,-1.92
2022-12-15T06:08:43.796Z,-1.73
2022-12-15T06:11:17.936Z,-1.78
2022-12-15T06:13:46.886Z,-1.78
2022-12-15T06:16:19.067Z,-1.83
2022-12-15T06:18:55.996Z,-1.77
2022-12-15T06:21:32.113Z,-1.79
2022-12-15T06:24:00.826Z,-1.76
2022-12-15T06:26:31.212Z,-1.87
2022-12-15T06:29:04.173Z,-1.88
2022-12-15T06:31:34.145Z,-1.94
2022-12-15T06:34:09.254Z,-2.02
2022-12-15T06:36:37.522Z,-2.03
2022-12-15T06:39:10.837Z,-1.78
2022-12-15T06:41:39.808Z,-1.79
2022-12-15T06:44:08.439Z,-2.07
2022-12-15T06:46:36.417Z,-2.23
2022-12-15T06:49:04.844Z,-2.11
2022-12-15T06:51:32.900Z,-2.25
2022-12-15T06:54:02.145Z,-2.15
2022-12-15T06:56:39.052Z,-2.32
2022-12-15T06:59:08.394Z,-2.05
2022-12-15T07:01:36.588Z,-1.98
2022-12-15T07:04:05.892Z,-1.97
2022-12-15T07:06:39.308Z,-2.10
2022-12-15T07:09:13.924Z,-2.06
2022-12-15T07:11:42.069Z,-1.85
2022-12-15T07:14:10.536Z,-2.04
2022-12-15T07:16:38.788Z,-2.05
2022-12-15T07:19:06.871Z,-1.79
2022-12-15T07:21:35.012Z,-1.73
2022-12-15T07:24:03.357Z,-1.98
2022-12-15T07:26:32.302Z,-1.71
2022-12-15T07:29:00.204Z,-1.68
2022-12-15T07:31:28.098Z,-1.93
2022-12-15T07:33:58.783Z,-1.74
2022-12-15T07:36:27.853Z,-1.59
2022-12-15T07:39:01.287Z,-1.65
2022-12-15T07:41:30.237Z,-1.63
2022-12-15T07:43:58.902Z,-1.66
2022-12-15T07:46:29.221Z,-1.66
2022-12-15T07:48:57.361Z,-1.75
2022-12-15T07:51:25.327Z,-1.93
2022-12-15T07:53:53.528Z,-1.70
2022-12-15T07:56:21.693Z,-1.96
2022-12-15T07:58:49.864Z,-1.65
2022-12-15T08:01:18.167Z,-1.71
2022-12-15T08:03:46.517Z,-1.63
2022-12-15T08:06:16.245Z,-1.68
2022-12-15T08:08:50.766Z,-1.70
2022-12-15T08:11:22.649Z,-1.77
2022-12-15T08:14:02.710Z,-1.46
2022-12-15T08:16:33.383Z,-1.99
2022-12-15T08:19:01.411Z,-1.59
2022-12-15T08:21:31.359Z,-1.57
2022-12-15T08:24:01.023Z,-1.44
2022-12-15T08:26:31.064Z,-1.44
2022-12-15T08:31:55.418Z,-1.65
2022-12-15T08:34:23.513Z,-1.37
2022-12-15T08:36:51.584Z,-1.36
2022-12-15T08:39:20.816Z,-1.24
2022-12-15T08:41:50.029Z,-1.46
2022-12-15T08:44:18.185Z,-1.40
2022-12-15T08:46:46.409Z,-1.09
2022-12-15T08:49:18.056Z,-1.08
2022-12-15T08:51:50.907Z,-1.35
2022-12-15T08:54:19.940Z,-1.07
2022-12-15T08:56:48.571Z,-1.06
2022-12-15T08:59:16.815Z,-0.92
2022-12-15T09:01:45.211Z,-1.31
2022-12-15T09:04:13.641Z,-0.94
2022-12-15T09:06:42.756Z,-0.98
2022-12-15T09:09:14.072Z,-1.06
2022-12-15T09:11:41.991Z,-1.13
2022-12-15T09:14:10.244Z,-0.78
2022-12-15T09:16:38.298Z,-0.94
2022-12-15T09:19:08.379Z,-0.81
2022-12-15T09:21:36.917Z,-1.09
2022-12-15T09:24:05.554Z,-0.91
2022-12-15T09:26:34.631Z,-1.25
2022-12-15T09:29:03.486Z,-1.04
2022-12-15T09:31:36.936Z,-0.98
2022-12-15T09:34:05.955Z,-0.86
2022-12-15T09:36:33.966Z,-0.89
2022-12-15T09:39:03.258Z,-0.91
2022-12-15T09:41:34.859Z,-0.79
2022-12-15T09:44:13.029Z,-0.69
2022-12-15T09:47:17.373Z,-0.61
2022-12-15T09:49:55.720Z,-0.54
2022-12-15T09:52:26.862Z,-0.56
2022-12-15T09:54:56.997Z,-0.51
2022-12-15T09:57:44.873Z,-0.70
2022-12-15T10:00:21.991Z,-0.66
2022-12-15T10:03:15.083Z,-0.70
2022-12-15T10:06:18.394Z,-0.90
2022-12-15T10:08:58.649Z,-0.80
2022-12-15T10:11:38.552Z,-0.79
2022-12-15T10:14:32.235Z,-0.71
2022-12-15T10:17:21.914Z,-0.86
2022-12-15T10:20:20.515Z,-0.71
2022-12-15T10:22:51.526Z,-0.52
2022-12-15T10:25:30.186Z,-0.78
2022-12-15T10:28:16.652Z,-0.56
2022-12-15T10:31:13.087Z,-0.93
2022-12-15T10:33:48.689Z,-0.74
2022-12-15T10:36:18.769Z,-1.39
2022-12-15T10:38:50.660Z,-0.90
2022-12-15T10:41:22.950Z,-0.62
2022-12-15T10:43:53.695Z,-0.75
2022-12-15T10:46:25.332Z,-0.68
2022-12-15T10:49:07.873Z,-0.53
2022-12-15T10:51:43.714Z,-0.46
2022-12-15T10:54:16.588Z,-0.79
2022-12-15T10:57:03.261Z,-0.86
2022-12-15T10:59:35.539Z,-0.49
2022-12-15T11:02:25.298Z,-0.54
2022-12-15T11:05:17.116Z,-0.77
2022-12-15T11:07:46.393Z,-0.64
2022-12-15T11:10:27.304Z,-0.38
2022-12-15T11:13:13.723Z,-0.49
2022-12-15T11:18:53.911Z,-0.66
2022-12-15T11:21:44.414Z,-0.44
2022-12-15T11:24:35.371Z,-0.38
2022-12-15T11:27:36.151Z,-0.92
2022-12-15T11:30:20.994Z,-0.47
2022-12-15T11:32:55.807Z,-0.71
2022-12-15T11:35:46.573Z,-0.52
2022-12-15T11:38:35.117Z,-0.31
2022-12-15T11:41:46.121Z,-0.55
2022-12-15T11:44:30.127Z,-0.29
2022-12-15T11:47:22.120Z,-0.34
2022-12-15T11:49:52.957Z,-0.37
2022-12-15T11:52:30.336Z,-0.47
2022-12-15T11:55:32.154Z,-0.70
2022-12-15T11:58:23.586Z,-0.67
2022-12-15T12:01:03.113Z,-0.88
2022-12-15T12:03:57.314Z,-0.57
2022-12-15T12:07:06.054Z,-0.77
2022-12-15T12:10:04.085Z,-0.81
2022-12-15T12:12:45.788Z,-0.74
2022-12-15T12:15:36.332Z,-0.82
2022-12-15T12:18:26.053Z,-1.17
2022-12-15T12:21:03.806Z,-0.98
2022-12-15T12:23:58.815Z,-1.06
2022-12-15T12:26:46.454Z,-1.24
2022-12-15T12:29:26.695Z,-0.98
2022-12-15T12:32:00.557Z,-0.95
2022-12-15T12:38:12.462Z,-1.75
2022-12-15T12:41:30.413Z,-1.01
2022-12-15T12:44:10.969Z,-1.01
2022-12-15T12:46:49.111Z,-1.23
2022-12-15T12:49:38.783Z,-1.10
2022-12-15T12:52:28.677Z,-1.35
2022-12-15T12:55:14.463Z,-1.09
2022-12-15T12:57:44.175Z,-1.14
2022-12-15T13:00:17.287Z,-1.15
2022-12-15T13:03:17.652Z,-1.18
2022-12-15T13:05:51.671Z,-1.52
2022-12-15T13:08:45.167Z,-1.28
2022-12-15T13:12:20.549Z,-1.14
2022-12-15T13:14:55.055Z,-1.19
2022-12-15T13:17:32.625Z,-1.08
2022-12-15T13:20:17.988Z,-1.37
2022-12-15T13:22:46.509Z,-1.17
2022-12-15T13:25:38.709Z,-1.33
2022-12-15T13:28:31.099Z,-2.17
2022-12-15T13:31:18.291Z,-1.26
2022-12-15T13:33:56.142Z,-1.40
2022-12-15T13:36:43.252Z,-1.49
2022-12-15T13:39:17.382Z,-1.43
2022-12-15T13:42:31.442Z,-1.57
2022-12-15T13:44:48.954Z,-1.84
2022-12-15T13:47:25.890Z,-1.56
2022-12-15T13:50:07.211Z,-1.58
2022-12-15T13:53:17.037Z,-1.87
2022-12-15T13:55:39.520Z,-1.67
2022-12-15T13:58:18.392Z,-1.72
2022-12-15T14:00:57.199Z,-1.67
2022-12-15T14:03:26.243Z,-1.72
2022-12-15T14:05:59.853Z,-1.89
2022-12-15T14:08:30.589Z,-1.79
2022-12-15T14:11:16.516Z,-2.30
2022-12-15T14:13:54.265Z,-1.99
2022-12-15T14:16:23.639Z,-1.63
2022-12-15T14:19:17.817Z,-1.34
2022-12-15T14:21:59.624Z,-1.76
2022-12-15T14:27:30.869Z,-1.85
2022-12-15T14:30:29.549Z,-1.66
2022-12-15T14:33:08.256Z,-2.04
2022-12-15T14:35:51.587Z,-1.68
2022-12-15T14:38:35.863Z,-1.72
2022-12-15T14:41:05.946Z,-2.09
2022-12-15T14:43:39.439Z,-1.99
2022-12-15T14:46:22.509Z,-2.03
2022-12-15T14:49:04.789Z,-2.14
2022-12-15T14:51:46.955Z,-1.96
2022-12-15T14:54:39.309Z,-1.92
2022-12-15T14:57:09.936Z,-1.97
2022-12-15T14:59:44.338Z,-2.23
2022-12-15T15:02:25.431Z,-2.02
2022-12-15T15:03:06.889Z,-0.62
2022-12-15T15:03:10.519Z,-1.27
2022-12-15T15:03:14.311Z,-1.62
2022-12-15T15:05:04.305Z,-2.11
2022-12-15T15:07:34.346Z,-2.07
2022-12-15T15:10:04.014Z,-2.19
2022-12-15T15:12:47.881Z,-2.08
2022-12-15T15:15:20.385Z,-2.30
2022-12-15T15:17:57.518Z,-2.58
2022-12-15T15:20:30.587Z,-2.18
2022-12-15T15:23:07.784Z,-2.17
2022-12-15T15:25:54.544Z,-2.19
2022-12-15T15:28:39.532Z,-2.08
2022-12-15T15:31:25.771Z,-2.18
2022-12-15T15:33:57.289Z,-2.09
2022-12-15T15:36:34.496Z,-2.03
2022-12-15T15:39:09.857Z,-2.10
2022-12-15T15:41:38.216Z,-2.55
2022-12-15T15:44:14.953Z,-2.37
2022-12-15T15:46:55.252Z,-2.27
2022-12-15T15:49:24.917Z,-1.95
2022-12-15T15:51:55.354Z,-2.06
2022-12-15T15:54:30.160Z,-2.01
2022-12-15T15:56:58.983Z,-1.81
2022-12-15T15:59:28.986Z,-1.73
2022-12-15T16:01:58.992Z,-1.68
2022-12-15T16:04:27.696Z,-1.46
2022-12-15T16:06:55.904Z,-1.57
2022-12-15T16:09:25.683Z,-1.80
2022-12-15T16:11:54.382Z,-1.82
2022-12-15T16:14:22.334Z,-2.03
2022-12-15T16:16:51.679Z,-1.83
2022-12-15T16:19:19.642Z,-1.73
2022-12-15T16:21:51.095Z,-1.76
2022-12-15T16:24:20.733Z,-2.08
2022-12-15T16:26:52.393Z,-1.98
2022-12-15T16:29:21.943Z,-2.03
2022-12-15T16:31:53.363Z,-2.13
2022-12-15T16:34:22.229Z,-2.30
2022-12-15T16:36:51.168Z,-2.17
2022-12-15T16:39:31.178Z,-2.06
2022-12-15T16:41:59.510Z,-1.89
2022-12-15T16:44:29.638Z,-2.10
2022-12-15T16:47:00.192Z,-1.65
2022-12-15T16:49:35.040Z,-1.77
2022-12-15T16:52:06.782Z,-2.12
2022-12-15T16:54:36.293Z,-2.00
2022-12-15T16:57:05.841Z,-2.32
2022-12-15T16:59:35.280Z,-2.12
2022-12-15T17:02:29.906Z,-2.16
2022-12-15T17:04:58.588Z,-2.50
2022-12-15T17:07:28.336Z,-2.61
2022-12-15T17:09:56.944Z,-2.27
2022-12-15T17:12:25.418Z,-2.38
2022-12-15T17:14:53.600Z,-2.37
2022-12-15T17:17:21.629Z,-2.01
2022-12-15T17:20:28.028Z,-2.11
2022-12-15T17:22:40.308Z,-2.28
2022-12-15T17:25:17.487Z,-2.33
2022-12-15T17:27:46.302Z,-2.29
2022-12-15T17:31:35.734Z,-2.01
2022-12-15T17:34:30.763Z,-2.26
2022-12-15T17:37:05.089Z,-2.15
2022-12-15T17:39:34.990Z,-2.57
2022-12-15T17:42:03.899Z,-2.14
2022-12-15T17:44:38.340Z,-2.27
2022-12-15T17:47:08.936Z,-2.24
2022-12-15T17:49:38.984Z,-2.22
2022-12-15T17:52:34.583Z,-2.15
2022-12-15T17:55:08.188Z,-2.42
2022-12-15T17:57:36.203Z,-2.23
2022-12-15T18:00:17.741Z,-2.18
2022-12-15T18:02:46.086Z,-2.30
2022-12-15T18:05:15.360Z,-2.31
2022-12-15T18:07:43.904Z,-2.64
2022-12-15T18:10:25.913Z,-2.41
2022-12-15T18:12:54.004Z,-2.50
2022-12-15T18:15:32.020Z,-2.60
2022-12-15T18:18:01.446Z,-2.65
2022-12-15T18:20:29.638Z,-2.91
2022-12-15T18:22:57.612Z,-2.63
2022-12-15T18:25:28.278Z,-2.63
2022-12-15T18:27:58.641Z,-2.67
2022-12-15T18:30:27.493Z,-2.75
2022-12-15T18:32:59.320Z,-2.76
2022-12-15T18:35:39.968Z,-3.00
2022-12-15T18:38:28.871Z,-2.79
2022-12-15T18:41:01.423Z,-2.79
2022-12-15T18:43:33.728Z,-2.96
2022-12-15T18:46:02.030Z,-2.73
2022-12-15T18:48:35.328Z,-2.72
2022-12-15T18:51:13.138Z,-2.75
2022-12-15T18:53:41.798Z,-2.73
2022-12-15T18:56:14.459Z,-2.68
2022-12-15T18:58:43.029Z,-2.97
2022-12-15T19:01:11.117Z,-2.85
2022-12-15T19:03:41.127Z,-2.84
2022-12-15T19:06:36.342Z,-2.84
2022-12-15T19:09:18.138Z,-2.76
2022-12-15T19:12:09.425Z,-2.74
2022-12-15T19:14:40.328Z,-2.79
2022-12-15T19:17:41.632Z,-2.69
2022-12-15T19:20:38.319Z,-2.67
2022-12-15T19:23:07.648Z,-2.66
2022-12-15T19:25:36.253Z,-2.61
2022-12-15T19:28:07.174Z,-2.62
2022-12-15T19:30:41.594Z,-2.59
2022-12-15T19:33:13.810Z,-2.59
2022-12-15T19:35:50.782Z,-2.68
2022-12-15T19:38:30.268Z,-2.73
2022-12-15T19:40:59.750Z,-2.75
2022-12-15T19:43:28.164Z,-2.83
2022-12-15T19:45:56.685Z,-2.84
2022-12-15T19:48:24.901Z,-2.88
2022-12-15T19:50:54.807Z,-3.22
2022-12-15T19:53:27.609Z,-2.90
2022-12-15T19:56:01.491Z,-2.92
2022-12-15T19:58:33.006Z,-2.94
2022-12-15T20:01:12.401Z,-2.94
2022-12-15T20:03:50.530Z,-2.90
2022-12-15T20:06:23.719Z,-2.89
2022-12-15T20:08:57.164Z,-2.86
2022-12-15T20:11:32.243Z,-2.85
2022-12-15T20:14:02.195Z,-2.84
2022-12-15T20:16:30.457Z,-2.90
2022-12-15T20:18:58.426Z,-2.88
2022-12-15T20:21:35.717Z,-2.91
2022-12-15T20:24:18.937Z,-3.00
2022-12-15T20:26:57.767Z,-2.92
2022-12-15T20:29:31.191Z,-2.93
2022-12-15T20:32:00.308Z,-3.02
2022-12-15T20:34:28.398Z,-3.04
2022-12-15T20:36:57.271Z,-3.10
2022-12-15T20:39:29.677Z,-3.11
2022-12-15T20:41:58.279Z,-3.44
2022-12-15T20:44:26.383Z,-3.18
2022-12-15T20:46:55.021Z,-3.39
2022-12-15T20:49:24.007Z,-3.14
2022-12-15T20:51:52.604Z,-3.20
2022-12-15T20:54:23.063Z,-3.26
2022-12-15T20:56:51.852Z,-3.29
2022-12-15T20:59:23.937Z,-3.21
2022-12-15T21:01:53.428Z,-3.25
2022-12-15T21:04:30.304Z,-3.27
2022-12-15T21:06:58.907Z,-3.26
2022-12-15T21:09:27.098Z,-3.29
2022-12-15T21:11:55.902Z,-3.26
2022-12-15T21:14:24.654Z,-3.32
2022-12-15T21:16:52.917Z,-3.22
2022-12-15T21:19:22.891Z,-3.59
2022-12-15T21:21:54.981Z,-3.26
2022-12-15T21:24:27.837Z,-3.17
2022-12-15T21:26:56.625Z,-3.21
2022-12-15T21:29:27.839Z,-3.47
2022-12-15T21:31:56.195Z,-3.29
2022-12-15T21:34:24.406Z,-3.22
2022-12-15T21:36:54.953Z,-3.54
2022-12-15T21:39:36.136Z,-3.48
2022-12-15T21:42:14.353Z,-3.20
2022-12-15T21:44:42.899Z,-3.22
2022-12-15T21:47:52.167Z,-3.17
2022-12-15T21:50:20.833Z,-3.37
2022-12-15T21:52:49.387Z,-3.09
2022-12-15T21:55:27.909Z,-3.05
2022-12-15T21:57:57.499Z,-3.28
2022-12-15T22:00:26.323Z,-2.92
2022-12-15T22:02:54.768Z,-2.88
2022-12-15T22:05:30.913Z,-3.18
2022-12-15T22:08:12.820Z,-3.18
2022-12-15T22:10:40.707Z,-3.16
2022-12-15T22:13:16.514Z,-3.09
2022-12-15T22:15:45.123Z,-2.75
2022-12-15T22:18:19.959Z,-2.71
2022-12-15T22:20:50.001Z,-2.72
2022-12-15T22:23:19.105Z,-2.61
2022-12-15T22:25:56.308Z,-2.62
2022-12-15T22:28:27.523Z,-2.76
2022-12-15T22:30:56.746Z,-2.75
2022-12-15T22:33:26.474Z,-3.12
2022-12-15T22:35:56.223Z,-2.91
2022-12-15T22:38:24.455Z,-3.00
2022-12-15T22:40:57.088Z,-2.91
2022-12-15T22:43:39.574Z,-2.81
2022-12-15T22:46:12.770Z,-3.06
2022-12-15T22:48:43.720Z,-3.16
2022-12-15T22:51:14.989Z,-2.85
2022-12-15T22:53:42.960Z,-2.81
2022-12-15T22:56:29.616Z,-2.73
2022-12-15T22:59:03.573Z,-2.77
2022-12-15T23:01:31.923Z,-2.72
2022-12-15T23:04:00.076Z,-2.69
2022-12-15T23:06:28.416Z,-2.64
2022-12-15T23:08:56.516Z,-2.87
2022-12-15T23:11:39.977Z,-2.83
2022-12-15T23:14:17.370Z,-2.60
2022-12-15T23:16:46.620Z,-2.64
2022-12-15T23:19:24.201Z,-2.57
2022-12-15T23:21:52.379Z,-2.50
2022-12-15T23:24:20.664Z,-2.45
2022-12-15T23:26:48.914Z,-2.83
2022-12-15T23:29:17.690Z,-2.47
2022-12-15T23:31:47.506Z,-2.52
2022-12-15T23:34:15.761Z,-2.48
2022-12-15T23:36:43.787Z,-2.40
2022-12-15T23:39:12.223Z,-2.42
2022-12-15T23:41:40.749Z,-2.40
2022-12-15T23:44:08.539Z,-2.33
2022-12-15T23:46:36.639Z,-2.44
2022-12-15T23:49:04.581Z,-2.23
2022-12-15T23:51:32.575Z,-2.25
2022-12-15T23:54:00.689Z,-2.22
2022-12-15T23:56:28.850Z,-2.32
2022-12-15T23:58:59.444Z,-2.59
